Time;durP1;ratioP1;P1;durP2;ratioP2;P2;SDS_P1;SDS_P2;PMS_P1;PMS_P2;Temp;Humidity;BMP_temperature;BMP_pressure;BME280_temperature;BME280_humidity;BME280_pressure;Samples;Min_cycle;Max_cycle;Signal;HPM_P1;HPM_P2
2022/05/09 00:01:27;;;;;;;11.07;9.90;;;;;;;;;;10347418;28;20053;-77
2022/05/09 00:06:27;;;;;;;11.60;10.43;;;;;;;;;;10358602;28;20501;-78
2022/05/09 00:11:28;;;;;;;12.00;10.32;;;;;;;;;;10343749;28;20539;-77
2022/05/09 00:16:33;;;;;;;10.23;9.17;;;;;;;;;;10342069;28;20464;-78
2022/05/09 00:21:35;;;;;;;11.93;10.73;;;;;;;;;;10350575;28;20295;-78
2022/05/09 00:26:36;;;;;;;11.00;9.88;;;;;;;;;;10361019;28;20051;-79
2022/05/09 00:31:37;;;;;;;11.93;9.83;;;;;;;;;;10327573;28;20064;-78
2022/05/09 00:36:37;;;;;;;10.65;9.55;;;;;;;;;;10354792;28;20046;-78
2022/05/09 00:41:38;;;;;;;10.23;9.15;;;;;;;;;;10359543;28;20056;-79
2022/05/09 00:46:40;;;;;;;10.43;9.43;;;;;;;;;;10352452;28;20141;-77
2022/05/09 00:51:43;;;;;;;11.10;9.27;;;;;;;;;;10361423;28;20414;-78
2022/05/09 00:56:46;;;;;;;11.75;8.80;;;;;;;;;;10365023;28;20501;-79
2022/05/09 01:01:47;;;;;;;12.18;9.30;;;;;;;;;;10364213;28;20046;-78
2022/05/09 01:06:48;;;;;;;9.30;8.45;;;;;;;;;;10337180;28;20042;-77
2022/05/09 01:11:49;;;;;;;9.00;7.40;;;;;;;;;;10366330;28;20046;-79
2022/05/09 01:16:49;;;;;;;10.40;8.45;;;;;;;;;;10370091;28;20098;-79
2022/05/09 01:21:49;;;;;;;12.50;7.93;;;;;;;;;;10354972;28;20180;-77
2022/05/09 01:26:50;;;;;;;9.40;7.90;;;;;;;;;;10363962;28;20050;-77
2022/05/09 01:31:52;;;;;;;9.45;7.88;;;;;;;;;;10359259;28;20112;-76
2022/05/09 01:36:55;;;;;;;8.60;7.80;;;;;;;;;;10334822;28;20389;-78
2022/05/09 01:41:55;;;;;;;7.97;6.97;;;;;;;;;;10338773;28;20057;-78
2022/05/09 01:52:15;;;;;;;11.88;7.82;;;;;;;;;;10341784;28;20489;-78
2022/05/09 01:57:16;;;;;;;8.77;7.03;;;;;;;;;;10358448;28;20148;-78
2022/05/09 02:02:18;;;;;;;8.38;6.88;;;;;;;;;;10361730;28;20116;-79
2022/05/09 02:07:23;;;;;;;9.30;7.55;;;;;;;;;;10377996;28;20065;-77
2022/05/09 02:12:24;;;;;;;8.43;7.57;;;;;;;;;;10361173;28;20050;-75
2022/05/09 02:17:29;;;;;;;10.63;7.78;;;;;;;;;;10373865;28;20049;-77
2022/05/09 02:22:29;;;;;;;8.52;6.57;;;;;;;;;;10366187;28;20037;-77
2022/05/09 02:27:30;;;;;;;10.00;7.00;;;;;;;;;;10348231;28;20049;-76
2022/05/09 02:32:31;;;;;;;9.57;6.53;;;;;;;;;;10366392;28;20042;-78
2022/05/09 02:37:32;;;;;;;6.95;6.25;;;;;;;;;;10353253;28;20044;-76
2022/05/09 02:42:34;;;;;;;7.32;6.18;;;;;;;;;;10352127;28;20046;-77
2022/05/09 02:47:34;;;;;;;9.98;6.82;;;;;;;;;;10348935;28;20058;-79
2022/05/09 02:52:37;;;;;;;7.32;6.57;;;;;;;;;;10368352;28;20042;-78
2022/05/09 02:57:37;;;;;;;10.00;6.47;;;;;;;;;;10346669;28;20049;-78
2022/05/09 03:02:37;;;;;;;7.18;6.25;;;;;;;;;;10343141;28;20481;-77
2022/05/09 03:07:38;;;;;;;8.07;6.10;;;;;;;;;;10348404;28;20064;-77
2022/05/09 03:12:40;;;;;;;7.57;5.28;;;;;;;;;;10360579;28;20042;-78
2022/05/09 03:17:41;;;;;;;7.33;5.33;;;;;;;;;;10360404;28;20542;-79
2022/05/09 03:22:41;;;;;;;8.30;5.80;;;;;;;;;;10356205;28;20276;-78
2022/05/09 03:27:42;;;;;;;7.40;5.80;;;;;;;;;;10346505;28;20316;-77
2022/05/09 03:32:44;;;;;;;8.48;6.43;;;;;;;;;;10362855;28;21179;-81
2022/05/09 03:37:44;;;;;;;9.00;6.65;;;;;;;;;;10359243;28;20073;-78
2022/05/09 03:42:46;;;;;;;10.63;7.47;;;;;;;;;;10338944;28;20102;-78
2022/05/09 03:47:46;;;;;;;12.80;6.90;;;;;;;;;;10364914;28;20735;-79
2022/05/09 03:52:47;;;;;;;8.63;6.93;;;;;;;;;;10352691;28;20124;-80
2022/05/09 03:57:49;;;;;;;10.43;7.07;;;;;;;;;;10366099;28;20037;-79
2022/05/09 04:02:49;;;;;;;10.10;7.30;;;;;;;;;;10308637;28;20066;-79
2022/05/09 04:07:51;;;;;;;8.02;6.13;;;;;;;;;;10346056;28;20060;-78
2022/05/09 04:12:52;;;;;;;7.67;6.40;;;;;;;;;;10354238;28;20049;-78
2022/05/09 04:17:53;;;;;;;8.87;6.07;;;;;;;;;;10351170;28;20046;-78
2022/05/09 04:22:54;;;;;;;9.88;5.90;;;;;;;;;;10357849;28;20375;-77
2022/05/09 04:27:57;;;;;;;8.93;6.45;;;;;;;;;;10390909;28;20054;-78
2022/05/09 04:32:57;;;;;;;8.45;5.97;;;;;;;;;;10365616;28;20042;-78
2022/05/09 04:37:58;;;;;;;10.27;6.18;;;;;;;;;;10361204;28;20053;-76
2022/05/09 04:42:59;;;;;;;8.55;5.95;;;;;;;;;;10361073;28;20041;-77
2022/05/09 04:48:00;;;;;;;7.80;6.18;;;;;;;;;;10345247;28;20045;-78
2022/05/09 04:53:00;;;;;;;9.57;6.30;;;;;;;;;;10343308;28;20045;-75
2022/05/09 04:58:03;;;;;;;9.55;5.38;;;;;;;;;;10367936;28;20112;-78
2022/05/09 05:03:03;;;;;;;9.63;5.95;;;;;;;;;;10341654;28;20454;-78
2022/05/09 05:08:04;;;;;;;6.93;5.30;;;;;;;;;;10364492;28;20085;-78
2022/05/09 05:13:04;;;;;;;8.60;5.05;;;;;;;;;;10326773;28;1074966;-78
2022/05/09 05:18:08;;;;;;;9.98;5.72;;;;;;;;;;10371720;28;20094;-78
2022/05/09 05:23:09;;;;;;;7.57;4.72;;;;;;;;;;10361080;28;20108;-78
2022/05/09 05:28:11;;;;;;;10.07;5.40;;;;;;;;;;10354273;28;20149;-80
2022/05/09 05:33:12;;;;;;;6.77;5.20;;;;;;;;;;10360966;28;20456;-78
2022/05/09 05:38:12;;;;;;;8.47;5.43;;;;;;;;;;10359430;28;20149;-79
2022/05/09 05:43:14;;;;;;;7.30;5.25;;;;;;;;;;10363893;28;20152;-77
2022/05/09 05:48:16;;;;;;;9.75;4.97;;;;;;;;;;10370854;28;20056;-79
2022/05/09 05:53:16;;;;;;;7.37;5.00;;;;;;;;;;10366114;28;20052;-74
2022/05/09 05:58:17;;;;;;;6.70;5.32;;;;;;;;;;10361942;28;20696;-73
2022/05/09 06:03:17;;;;;;;7.33;5.27;;;;;;;;;;10371627;28;20046;-73
2022/05/09 06:08:17;;;;;;;11.50;5.90;;;;;;;;;;10376560;28;20096;-74
2022/05/09 06:13:19;;;;;;;6.43;4.78;;;;;;;;;;10335179;28;20138;-73
2022/05/09 06:18:22;;;;;;;8.38;5.10;;;;;;;;;;10350185;28;20068;-76
2022/05/09 06:23:22;;;;;;;7.78;5.43;;;;;;;;;;10364901;28;20351;-76
2022/05/09 06:28:23;;;;;;;10.45;5.68;;;;;;;;;;10363659;28;20054;-77
2022/05/09 06:33:25;;;;;;;7.28;5.30;;;;;;;;;;10372455;28;20058;-78
2022/05/09 06:38:27;;;;;;;9.10;5.30;;;;;;;;;;10337617;28;20064;-78
2022/05/09 06:43:28;;;;;;;5.57;4.20;;;;;;;;;;10358183;28;20533;-78
2022/05/09 06:48:28;;;;;;;9.73;5.90;;;;;;;;;;10368055;28;20285;-82
2022/05/09 06:53:29;;;;;;;6.77;4.93;;;;;;;;;;10374074;28;20205;-79
2022/05/09 06:58:29;;;;;;;7.55;5.88;;;;;;;;;;10391081;28;20253;-79
2022/05/09 07:03:30;;;;;;;7.47;4.87;;;;;;;;;;10364355;28;20056;-78
2022/05/09 07:08:32;;;;;;;7.60;4.90;;;;;;;;;;10379097;28;20831;-78
2022/05/09 07:13:35;;;;;;;6.65;5.03;;;;;;;;;;10376776;28;20053;-78
2022/05/09 07:18:36;;;;;;;8.10;5.93;;;;;;;;;;10370523;28;20062;-79
2022/05/09 07:23:36;;;;;;;6.88;5.03;;;;;;;;;;10355920;28;20103;-79
2022/05/09 07:28:38;;;;;;;8.38;5.85;;;;;;;;;;10378687;28;20073;-79
2022/05/09 07:33:43;;;;;;;6.22;5.63;;;;;;;;;;10352258;28;20053;-78
2022/05/09 07:38:44;;;;;;;7.93;5.60;;;;;;;;;;10366023;28;20397;-75
2022/05/09 07:43:44;;;;;;;6.27;5.10;;;;;;;;;;10361961;28;20069;-75
2022/05/09 07:48:44;;;;;;;5.85;5.28;;;;;;;;;;10341178;28;20121;-74
2022/05/09 07:53:45;;;;;;;6.60;5.38;;;;;;;;;;10358732;28;20114;-77
2022/05/09 07:58:46;;;;;;;5.22;4.60;;;;;;;;;;10347602;28;20050;-76
2022/05/09 08:03:46;;;;;;;6.87;5.00;;;;;;;;;;10352373;28;20054;-78
2022/05/09 08:08:48;;;;;;;5.72;4.53;;;;;;;;;;10365248;28;20072;-79
2022/05/09 08:13:48;;;;;;;6.15;4.35;;;;;;;;;;10373143;28;20042;-81
2022/05/09 08:18:49;;;;;;;5.20;4.60;;;;;;;;;;10373338;28;20042;-79
2022/05/09 08:23:51;;;;;;;5.35;4.75;;;;;;;;;;10355910;28;20049;-80
2022/05/09 08:28:56;;;;;;;5.40;4.47;;;;;;;;;;10381339;28;20125;-79
2022/05/09 08:33:57;;;;;;;5.03;4.53;;;;;;;;;;10347263;28;20053;-80
2022/05/09 08:39:01;;;;;;;5.68;4.63;;;;;;;;;;10362998;28;20034;-81
2022/05/09 08:44:17;;;;;;;5.27;4.77;;;;;;;;;;10363007;28;20064;-79
2022/05/09 08:49:21;;;;;;;5.07;4.57;;;;;;;;;;10354943;28;20299;-74
2022/05/09 08:54:21;;;;;;;7.22;4.60;;;;;;;;;;10360116;28;20542;-74
2022/05/09 08:59:33;;;;;;;17.73;15.32;;;;;;;;;;10358476;28;20084;-73
2022/05/09 09:04:35;;;;;;;5.60;4.20;;;;;;;;;;10358260;28;20050;-74
2022/05/09 09:09:54;;;;;;;6.70;4.20;;;;;;;;;;10356419;28;20049;-72
2022/05/09 09:14:55;;;;;;;5.75;4.30;;;;;;;;;;10345614;28;20046;-72
2022/05/09 09:20:01;;;;;;;4.88;4.38;;;;;;;;;;10361925;28;20145;-72
2022/05/09 09:25:22;;;;;;;4.80;4.40;;;;;;;;;;10347141;28;20493;-71
2022/05/09 09:30:23;;;;;;;8.32;4.65;;;;;;;;;;10319920;28;20042;-72
2022/05/09 09:35:42;;;;;;;4.95;4.53;;;;;;;;;;10370769;28;20058;-78
2022/05/09 09:40:43;;;;;;;4.63;4.00;;;;;;;;;;10355674;28;20042;-77
2022/05/09 09:45:46;;;;;;;5.10;3.78;;;;;;;;;;10352690;28;20065;-77
2022/05/09 09:51:01;;;;;;;4.45;3.88;;;;;;;;;;10362828;28;20053;-77
2022/05/09 09:56:01;;;;;;;4.90;4.28;;;;;;;;;;10361583;28;20069;-77
2022/05/09 10:01:11;;;;;;;5.45;3.90;;;;;;;;;;10354423;28;20411;-76
2022/05/09 10:06:17;;;;;;;4.20;3.72;;;;;;;;;;10372565;28;20379;-77
2022/05/09 10:11:20;;;;;;;4.93;4.05;;;;;;;;;;10375410;28;20379;-77
2022/05/09 10:16:34;;;;;;;4.43;3.83;;;;;;;;;;10351074;28;20058;-77
2022/05/09 10:26:57;;;;;;;4.13;3.70;;;;;;;;;;10348627;28;20171;-77
2022/05/09 10:32:00;;;;;;;6.05;4.00;;;;;;;;;;10353917;28;20052;-77
2022/05/09 10:37:06;;;;;;;6.45;4.10;;;;;;;;;;10347776;28;20523;-78
2022/05/09 10:42:07;;;;;;;5.22;4.25;;;;;;;;;;10355909;28;20054;-76
2022/05/09 10:47:10;;;;;;;7.38;3.92;;;;;;;;;;10366579;28;20082;-76
2022/05/09 10:52:11;;;;;;;;;;;;;;;;;;10365678;28;20050;-77
2022/05/09 10:57:31;;;;;;;4.65;4.20;;;;;;;;;;10353399;28;19917;-75
2022/05/09 11:02:37;;;;;;;5.88;4.00;;;;;;;;;;10354322;28;20485;-76
2022/05/09 11:07:53;;;;;;;4.15;3.75;;;;;;;;;;10361534;28;20660;-77
2022/05/09 11:12:55;;;;;;;4.80;3.90;;;;;;;;;;10359964;28;20049;-77
2022/05/09 11:18:01;;;;;;;4.50;4.10;;;;;;;;;;10352230;28;20511;-76
2022/05/09 11:23:10;;;;;;;5.32;3.85;;;;;;;;;;10336648;28;20073;-77
2022/05/09 11:28:30;;;;;;;4.97;3.92;;;;;;;;;;10345872;28;20061;-78
2022/05/09 11:33:42;;;;;;;4.60;4.20;;;;;;;;;;10377205;28;20066;-77
2022/05/09 11:38:51;;;;;;;4.10;3.70;;;;;;;;;;10365828;28;20141;-76
2022/05/09 11:44:01;;;;;;;5.05;4.20;;;;;;;;;;10371277;28;20057;-78
2022/05/09 11:49:13;;;;;;;4.70;3.83;;;;;;;;;;10364428;28;20065;-76
2022/05/09 11:54:13;;;;;;;4.65;4.15;;;;;;;;;;10353572;28;20061;-77
2022/05/09 11:59:34;;;;;;;4.85;3.95;;;;;;;;;;10374775;28;20058;-78
2022/05/09 12:04:40;;;;;;;4.45;3.53;;;;;;;;;;10351484;28;20050;-78
2022/05/09 12:10:04;;;;;;;4.35;3.90;;;;;;;;;;10373561;28;20053;-79
2022/05/09 12:15:08;;;;;;;4.50;4.10;;;;;;;;;;10320186;28;20127;-79
2022/05/09 12:20:36;;;;;;;4.00;3.70;;;;;;;;;;10372533;28;20046;-80
2022/05/09 12:25:43;;;;;;;3.67;3.38;;;;;;;;;;10394850;28;20057;-78
2022/05/09 12:30:46;;;;;;;5.05;3.58;;;;;;;;;;10354871;28;20149;-78
2022/05/09 12:35:48;;;;;;;4.85;4.10;;;;;;;;;;10346604;28;20056;-79
2022/05/09 12:40:56;;;;;;;3.85;3.42;;;;;;;;;;10372279;28;20042;-79
2022/05/09 12:46:01;;;;;;;4.03;3.40;;;;;;;;;;10377206;28;20440;-78
2022/05/09 12:51:09;;;;;;;4.45;3.60;;;;;;;;;;10341822;28;20112;-79
2022/05/09 12:56:11;;;;;;;3.70;3.40;;;;;;;;;;10347328;28;20046;-80
2022/05/09 13:01:19;;;;;;;4.15;3.78;;;;;;;;;;10349026;28;20048;-79
2022/05/09 13:06:22;;;;;;;4.25;3.80;;;;;;;;;;10366839;28;20058;-78
2022/05/09 13:11:33;;;;;;;3.67;3.35;;;;;;;;;;10336040;28;20076;-78
2022/05/09 13:16:36;;;;;;;4.07;3.70;;;;;;;;;;10365460;28;20049;-77
2022/05/09 13:21:40;;;;;;;3.55;3.25;;;;;;;;;;10367349;28;20042;-80
2022/05/09 13:26:46;;;;;;;3.38;3.17;;;;;;;;;;10343875;28;20097;-78
2022/05/09 13:31:48;;;;;;;4.70;3.47;;;;;;;;;;10320254;28;20052;-79
2022/05/09 13:36:53;;;;;;;3.20;2.90;;;;;;;;;;10347491;28;20030;-79
2022/05/09 13:41:56;;;;;;;3.70;3.30;;;;;;;;;;10386534;28;20073;-79
2022/05/09 13:46:58;;;;;;;3.60;3.30;;;;;;;;;;10374955;28;20034;-83
2022/05/09 13:51:58;;;;;;;6.90;3.87;;;;;;;;;;10366467;28;20042;-79
2022/05/09 13:57:09;;;;;;;3.92;3.53;;;;;;;;;;10327543;28;20470;-76
2022/05/09 14:02:11;;;;;;;4.10;3.70;;;;;;;;;;10337311;28;20049;-77
2022/05/09 14:12:34;;;;;;;4.57;3.47;;;;;;;;;;10342189;28;20050;-77
2022/05/09 14:17:37;;;;;;;4.23;3.27;;;;;;;;;;10366882;28;20038;-78
2022/05/09 14:22:39;;;;;;;6.03;3.83;;;;;;;;;;10356895;28;20041;-78
2022/05/09 14:33:01;;;;;;;3.40;3.10;;;;;;;;;;10353938;28;20049;-77
2022/05/09 14:38:05;;;;;;;3.63;3.33;;;;;;;;;;10355826;28;20049;-78
2022/05/09 14:43:07;;;;;;;4.25;3.50;;;;;;;;;;10355862;28;20092;-79
2022/05/09 14:48:10;;;;;;;4.28;3.17;;;;;;;;;;10351704;28;20741;-78
2022/05/09 14:53:16;;;;;;;4.43;3.63;;;;;;;;;;10364015;28;20060;-79
2022/05/09 14:58:18;;;;;;;3.90;3.60;;;;;;;;;;10373765;28;20049;-78
2022/05/09 15:03:21;;;;;;;3.55;3.25;;;;;;;;;;10370415;28;20076;-79
2022/05/09 15:08:23;;;;;;;4.68;3.63;;;;;;;;;;10355585;28;20058;-77
2022/05/09 15:13:24;;;;;;;3.17;2.97;;;;;;;;;;10356603;28;20108;-77
2022/05/09 15:18:25;;;;;;;;;;;;;;;;;;10355931;28;20068;-77
2022/05/09 15:23:26;;;;;;;3.97;3.60;;;;;;;;;;10356782;28;19992;-78
2022/05/09 15:28:29;;;;;;;4.13;3.80;;;;;;;;;;10349154;28;20145;-78
2022/05/09 15:33:34;;;;;;;3.92;3.47;;;;;;;;;;10360747;28;20057;-78
2022/05/09 15:38:36;;;;;;;3.90;3.43;;;;;;;;;;10357411;28;20053;-79
2022/05/09 15:43:45;;;;;;;3.30;3.00;;;;;;;;;;10374636;28;20056;-78
2022/05/09 15:48:46;;;;;;;3.40;3.10;;;;;;;;;;10331479;28;20355;-78
2022/05/09 15:53:46;;;;;;;3.57;3.27;;;;;;;;;;10375062;28;20129;-76
2022/05/09 15:58:48;;;;;;;4.60;3.50;;;;;;;;;;10358339;28;20452;-75
2022/05/09 16:03:49;;;;;;;5.07;3.30;;;;;;;;;;10328700;28;20066;-77
2022/05/09 16:14:17;;;;;;;3.53;3.22;;;;;;;;;;10338313;28;20383;-78
2022/05/09 16:19:19;;;;;;;3.77;3.27;;;;;;;;;;10355078;28;20050;-77
2022/05/09 16:24:19;;;;;;;3.63;3.30;;;;;;;;;;10339863;28;20409;-75
2022/05/09 16:29:20;;;;;;;4.83;3.73;;;;;;;;;;10360936;28;20053;-76
2022/05/09 16:34:24;;;;;;;3.25;2.97;;;;;;;;;;10364574;28;20053;-77
2022/05/09 16:39:25;;;;;;;3.55;3.25;;;;;;;;;;10365300;28;20116;-76
2022/05/09 16:44:27;;;;;;;4.60;3.60;;;;;;;;;;10361138;28;20050;-76
2022/05/09 16:49:29;;;;;;;4.80;3.22;;;;;;;;;;10367572;28;20049;-77
2022/05/09 16:54:30;;;;;;;4.72;3.28;;;;;;;;;;10375353;28;20082;-78
2022/05/09 16:59:32;;;;;;;4.03;3.63;;;;;;;;;;10370773;28;20481;-77
2022/05/09 17:04:32;;;;;;;4.70;3.28;;;;;;;;;;10340342;28;20129;-77
2022/05/09 17:09:33;;;;;;;3.60;3.30;;;;;;;;;;10345969;28;20041;-77
2022/05/09 17:14:38;;;;;;;4.57;3.45;;;;;;;;;;10352075;28;20057;-78
2022/05/09 17:19:43;;;;;;;4.50;3.63;;;;;;;;;;10352935;28;20038;-77
2022/05/09 17:24:44;;;;;;;4.60;3.92;;;;;;;;;;10355721;28;20054;-77
2022/05/09 17:29:46;;;;;;;4.88;4.47;;;;;;;;;;10345188;28;20121;-78
2022/05/09 17:34:53;;;;;;;6.10;4.95;;;;;;;;;;10354962;28;20038;-78
2022/05/09 17:39:56;;;;;;;5.10;4.60;;;;;;;;;;10359589;28;20049;-77
2022/05/09 17:44:59;;;;;;;5.27;4.87;;;;;;;;;;10396379;28;20050;-79
2022/05/09 17:50:01;;;;;;;4.97;4.40;;;;;;;;;;10345717;28;20356;-78
2022/05/09 17:55:02;;;;;;;6.28;4.72;;;;;;;;;;10371181;28;20050;-77
2022/05/09 18:00:05;;;;;;;6.13;5.20;;;;;;;;;;10352698;28;20219;-76
2022/05/09 18:05:16;;;;;;;5.10;4.70;;;;;;;;;;10367964;28;20053;-79
2022/05/09 18:10:19;;;;;;;5.38;4.88;;;;;;;;;;10370141;28;20053;-77
2022/05/09 18:15:30;;;;;;;5.37;4.87;;;;;;;;;;10367824;28;20076;-76
2022/05/09 18:20:33;;;;;;;6.50;4.72;;;;;;;;;;10367882;28;20280;-77
2022/05/09 18:26:05;;;;;;;5.38;4.88;;;;;;;;;;10367130;28;20050;-78
2022/05/09 18:31:06;;;;;;;5.70;5.10;;;;;;;;;;10342565;28;20037;-76
2022/05/09 18:36:08;;;;;;;5.22;4.72;;;;;;;;;;10348083;28;20180;-76
2022/05/09 18:41:13;;;;;;;4.90;4.50;;;;;;;;;;10375311;28;20085;-75
2022/05/09 18:46:23;;;;;;;5.47;5.00;;;;;;;;;;10385702;28;20054;-78
2022/05/09 18:56:46;;;;;;;6.93;5.22;;;;;;;;;;10388137;28;20042;-76
2022/05/09 19:01:50;;;;;;;5.78;5.10;;;;;;;;;;10372047;28;20478;-78
2022/05/09 19:06:51;;;;;;;6.35;5.75;;;;;;;;;;10393047;28;20057;-78
2022/05/09 19:11:53;;;;;;;5.60;5.10;;;;;;;;;;10360572;28;20049;-77
2022/05/09 19:16:54;;;;;;;6.28;5.70;;;;;;;;;;10354716;28;20077;-78
2022/05/09 19:21:55;;;;;;;6.35;5.78;;;;;;;;;;10359436;28;20105;-79
2022/05/09 19:26:56;;;;;;;6.85;6.15;;;;;;;;;;10383592;28;20068;-76
2022/05/09 19:31:57;;;;;;;6.47;5.88;;;;;;;;;;10369937;28;20469;-78
2022/05/09 19:37:02;;;;;;;7.28;6.57;;;;;;;;;;10377661;28;20038;-79
2022/05/09 19:42:05;;;;;;;7.00;6.30;;;;;;;;;;10362092;28;20053;-78
2022/05/09 19:47:06;;;;;;;7.75;7.00;;;;;;;;;;10361914;28;20104;-79
2022/05/09 19:57:27;;;;;;;6.70;6.10;;;;;;;;;;10365965;28;20277;-75
2022/05/09 20:02:29;;;;;;;7.30;6.60;;;;;;;;;;10361221;28;20042;-77
2022/05/09 20:07:31;;;;;;;7.57;6.78;;;;;;;;;;10363520;28;20054;-78
2022/05/09 20:12:33;;;;;;;7.78;6.95;;;;;;;;;;10357709;28;20041;-79
2022/05/09 20:17:33;;;;;;;7.45;6.75;;;;;;;;;;10376890;28;20062;-79
2022/05/09 20:22:36;;;;;;;7.80;7.10;;;;;;;;;;10371719;28;20041;-78
2022/05/09 20:33:02;;;;;;;7.78;7.18;;;;;;;;;;10375306;28;20049;-77
2022/05/09 20:38:04;;;;;;;8.27;7.53;;;;;;;;;;10381563;28;20041;-76
2022/05/09 20:43:10;;;;;;;8.70;7.90;;;;;;;;;;10352313;28;20041;-77
2022/05/09 20:48:11;;;;;;;8.32;7.53;;;;;;;;;;10379934;28;20065;-77
2022/05/09 20:53:17;;;;;;;9.15;8.25;;;;;;;;;;10387266;28;20046;-77
2022/05/09 20:58:24;;;;;;;8.88;8.05;;;;;;;;;;10371316;28;20041;-77
2022/05/09 21:03:25;;;;;;;9.07;8.27;;;;;;;;;;10348590;28;20054;-77
2022/05/09 21:08:27;;;;;;;9.37;8.57;;;;;;;;;;10379494;28;20045;-77
2022/05/09 21:13:35;;;;;;;8.25;7.55;;;;;;;;;;10359683;28;20065;-77
2022/05/09 21:18:39;;;;;;;9.15;8.20;;;;;;;;;;10359215;28;20037;-77
2022/05/09 21:23:45;;;;;;;9.60;8.70;;;;;;;;;;10327334;28;20100;-77
2022/05/09 21:28:46;;;;;;;9.55;8.75;;;;;;;;;;10359590;28;20037;-77
2022/05/09 21:33:47;;;;;;;9.55;8.75;;;;;;;;;;10382275;28;20053;-78
2022/05/09 21:44:18;;;;;;;9.35;8.55;;;;;;;;;;10335374;28;20166;-77
2022/05/09 21:49:22;;;;;;;10.47;9.57;;;;;;;;;;10392378;28;20073;-77
2022/05/09 21:54:26;;;;;;;9.55;8.65;;;;;;;;;;10353755;28;20132;-76
2022/05/09 21:59:27;;;;;;;10.40;9.40;;;;;;;;;;10375609;28;20034;-78
2022/05/09 22:04:29;;;;;;;9.13;8.32;;;;;;;;;;10351802;28;20061;-76
2022/05/09 22:09:37;;;;;;;10.27;9.32;;;;;;;;;;10338451;28;20110;-76
2022/05/09 22:14:41;;;;;;;10.80;9.80;;;;;;;;;;10367177;28;20042;-77
2022/05/09 22:19:42;;;;;;;10.52;9.52;;;;;;;;;;10347302;28;20046;-77
2022/05/09 22:24:45;;;;;;;11.55;10.55;;;;;;;;;;10366331;28;20061;-76
2022/05/09 22:29:46;;;;;;;12.93;11.63;;;;;;;;;;10378377;28;20046;-76
2022/05/09 22:34:50;;;;;;;12.48;11.18;;;;;;;;;;10307489;28;20045;-77
2022/05/09 22:39:51;;;;;;;12.68;10.90;;;;;;;;;;10369523;28;20125;-76
2022/05/09 22:44:58;;;;;;;12.98;11.77;;;;;;;;;;10363384;28;20050;-75
2022/05/09 22:49:59;;;;;;;11.65;10.52;;;;;;;;;;10379143;28;20040;-77
2022/05/09 22:54:59;;;;;;;13.43;12.13;;;;;;;;;;10344284;28;20041;-76
2022/05/09 23:00:00;;;;;;;13.70;12.40;;;;;;;;;;10374547;28;20048;-76
2022/05/09 23:05:04;;;;;;;13.40;12.10;;;;;;;;;;10351386;28;20533;-74
2022/05/09 23:10:05;;;;;;;14.15;12.70;;;;;;;;;;10287468;28;20155;-76
2022/05/09 23:15:08;;;;;;;12.70;11.45;;;;;;;;;;10340896;28;20061;-77
2022/05/09 23:20:12;;;;;;;13.73;12.40;;;;;;;;;;10353127;28;20050;-76
2022/05/09 23:25:15;;;;;;;13.35;11.98;;;;;;;;;;10348900;28;20108;-76
2022/05/09 23:30:17;;;;;;;13.65;12.35;;;;;;;;;;10371768;28;20081;-76
2022/05/09 23:35:24;;;;;;;12.27;11.18;;;;;;;;;;10362582;28;20492;-76
2022/05/09 23:41:02;;;;;;;13.23;12.13;;;;;;;;;;10345222;28;20042;-77
2022/05/09 23:46:04;;;;;;;13.30;12.10;;;;;;;;;;10356076;28;20049;-76
2022/05/09 23:51:07;;;;;;;13.77;12.47;;;;;;;;;;10351843;28;20042;-75
2022/05/09 23:56:09;;;;;;;12.25;11.05;;;;;;;;;;10356492;28;20129;-76
